Time;durP1;ratioP1;P1;durP2;ratioP2;P2;SDS_P1;SDS_P2;PMS_P1;PMS_P2;Temp;Humidity;BMP_temperature;BMP_pressure;BME280_temperature;BME280_humidity;BME280_pressure;Samples;Min_cycle;Max_cycle;Signal;HPM_P1;HPM_P2
2021/07/13 00:00:20;;;;;;;;;;;;;;;17.03;86.11;101751.16;5113787;28;19923;-71
2021/07/13 00:02:47;;;;;;;;;;;;;;;16.96;85.76;101749.88;5114382;28;19931;-71
2021/07/13 00:05:15;;;;;;;;;;;;;;;16.88;85.93;101737.25;5113782;28;19931;-71
2021/07/13 00:07:42;;;;;;;;;;;;;;;17.06;85.65;101739.56;5114266;28;19923;-72
2021/07/13 00:10:11;;;;;;;;;;;;;;;17.20;85.48;101737.72;5113576;28;19928;-72
2021/07/13 00:12:37;;;;;;;;;;;;;;;17.12;85.31;101741.81;5113743;28;19924;-72
2021/07/13 00:15:05;;;;;;;;;;;;;;;16.94;85.67;101741.25;5113911;28;19935;-72
2021/07/13 00:17:32;;;;;;;;;;;;;;;16.87;85.84;101738.19;5114085;28;19924;-72
2021/07/13 00:19:58;;;;;;;;;;;;;;;16.80;86.64;101742.19;5113575;28;19931;-71
2021/07/13 00:22:25;;;;;;;;;;;;;;;16.76;86.61;101752.00;5113498;28;19923;-72
2021/07/13 00:24:52;;;;;;;;;;;;;;;16.68;86.75;101756.91;5113985;28;19923;-72
2021/07/13 00:27:20;;;;;;;;;;;;;;;16.74;86.40;101755.66;5113398;28;19931;-72
2021/07/13 00:29:46;;;;;;;;;;;;;;;16.82;85.82;101745.53;5113599;28;19923;-72
2021/07/13 00:32:13;;;;;;;;;;;;;;;16.83;86.03;101759.53;5113143;28;19924;-72
2021/07/13 00:34:39;;;;;;;;;;;;;;;17.23;85.08;101760.34;5113707;28;19924;-72
2021/07/13 00:37:06;;;;;;;;;;;;;;;17.55;83.76;101758.16;5113555;28;19935;-71
2021/07/13 00:39:33;;;;;;;;;;;;;;;17.62;83.22;101758.56;5113648;28;19931;-72
2021/07/13 00:41:59;;;;;;;;;;;;;;;17.74;82.69;101767.41;5113743;28;19924;-72
2021/07/13 00:44:27;;;;;;;;;;;;;;;17.76;82.71;101766.38;5113399;28;19924;-71
2021/07/13 00:46:54;;;;;;;;;;;;;;;17.82;82.28;101759.84;5113613;28;19928;-71
2021/07/13 00:49:21;;;;;;;;;;;;;;;17.88;82.60;101761.22;5112607;28;19924;-71
2021/07/13 00:51:48;;;;;;;;;;;;;;;17.87;82.50;101757.75;5113448;28;19924;-71
2021/07/13 00:54:14;;;;;;;;;;;;;;;17.85;82.53;101764.91;5113191;28;19928;-71
2021/07/13 00:56:42;;;;;;;;;;;;;;;17.83;82.92;101765.03;5113043;28;20377;-71
2021/07/13 00:59:09;;;;;;;;;;;;;;;17.83;82.67;101765.03;5113230;28;19931;-71
2021/07/13 01:01:37;;;;;;;;;;;;;;;17.83;82.41;101764.19;5112951;28;20293;-71
2021/07/13 01:04:04;;;;;;;;;;;;;;;17.82;82.59;101755.44;5113142;28;19923;-71
2021/07/13 01:06:37;;;;;;;;;;;;;;;17.82;82.21;101760.69;5113260;28;19947;-71
2021/07/13 01:09:05;;;;;;;;;;;;;;;17.78;82.46;101756.56;5112825;28;20362;-71
2021/07/13 01:11:35;;;;;;;;;;;;;;;17.88;82.07;101758.56;5113212;28;19924;-72
2021/07/13 01:14:04;;;;;;;;;;;;;;;17.90;81.81;101754.88;5112862;28;19931;-72
2021/07/13 01:16:34;;;;;;;;;;;;;;;17.95;82.21;101754.56;5113512;28;19946;-71
2021/07/13 01:19:08;;;;;;;;;;;;;;;17.98;81.87;101749.09;5113261;28;19945;-71
2021/07/13 01:21:41;;;;;;;;;;;;;;;18.01;82.55;101760.25;5112863;28;19928;-72
2021/07/13 01:24:13;;;;;;;;;;;;;;;18.02;82.01;101766.38;5112625;28;20393;-71
2021/07/13 01:26:47;;;;;;;;;;;;;;;17.96;81.98;101762.38;5112867;28;19931;-71
2021/07/13 01:29:16;;;;;;;;;;;;;;;18.03;81.05;101761.00;5112432;28;19924;-71
2021/07/13 01:31:44;;;;;;;;;;;;;;;17.97;81.70;101766.69;5112986;28;19924;-71
2021/07/13 01:34:15;;;;;;;;;;;;;;;18.06;81.04;101768.69;5112825;28;19931;-71
2021/07/13 01:36:44;;;;;;;;;;;;;;;18.11;80.87;101772.75;5112796;28;20397;-71
2021/07/13 01:39:11;;;;;;;;;;;;;;;18.08;81.11;101770.34;5112634;28;19930;-71
2021/07/13 01:41:38;;;;;;;;;;;;;;;18.14;80.90;101765.50;5112732;28;20394;-71
2021/07/13 01:44:05;;;;;;;;;;;;;;;18.23;80.75;101758.72;5112728;28;19923;-71
2021/07/13 01:46:34;;;;;;;;;;;;;;;18.24;81.33;101763.06;5112667;28;20302;-71
2021/07/13 01:49:02;;;;;;;;;;;;;;;18.27;81.65;101765.47;5113149;28;20022;-71
2021/07/13 01:51:29;;;;;;;;;;;;;;;18.26;81.04;101772.53;5113030;28;19977;-71
2021/07/13 01:54:01;;;;;;;;;;;;;;;18.30;81.00;101773.16;5112284;28;19928;-71
2021/07/13 01:56:30;;;;;;;;;;;;;;;18.21;81.02;101764.13;5112431;28;19924;-71
2021/07/13 01:58:58;;;;;;;;;;;;;;;18.30;80.85;101773.16;5112736;28;19923;-72
2021/07/13 02:01:25;;;;;;;;;;;;;;;18.35;80.80;101771.03;5114875;28;19931;-71
2021/07/13 02:03:55;;;;;;;;;;;;;;;18.42;80.71;101774.91;5116374;28;19924;-71
2021/07/13 02:06:22;;;;;;;;;;;;;;;18.43;80.86;101770.47;5116451;28;20089;-71
2021/07/13 02:08:51;;;;;;;;;;;;;;;18.44;81.01;101772.97;5116215;28;20378;-72
2021/07/13 02:11:18;;;;;;;;;;;;;;;18.37;81.33;101761.22;5115940;28;19931;-72
2021/07/13 02:13:44;;;;;;;;;;;;;;;18.46;81.51;101764.97;5116122;28;19923;-73
2021/07/13 02:16:11;;;;;;;;;;;;;;;18.56;81.38;101760.72;5115872;28;19931;-72
2021/07/13 02:18:38;;;;;;;;;;;;;;;18.43;81.94;101760.78;5116110;28;19930;-72
2021/07/13 02:21:09;;;;;;;;;;;;;;;18.34;82.59;101772.00;5116175;28;19924;-72
2021/07/13 02:23:36;;;;;;;;;;;;;;;18.48;82.01;101769.19;5116391;28;19981;-72
2021/07/13 02:26:04;;;;;;;;;;;;;;;18.66;81.70;101761.72;5115901;28;19923;-72
2021/07/13 02:28:33;;;;;;;;;;;;;;;18.79;80.93;101761.72;5116280;28;19924;-72
2021/07/13 02:31:03;;;;;;;;;;;;;;;18.87;79.64;101748.78;5116136;28;19923;-72
2021/07/13 02:33:32;;;;;;;;;;;;;;;18.89;79.13;101753.97;5115791;28;20385;-71
2021/07/13 02:36:00;;;;;;;;;;;;;;;18.96;77.82;101751.69;5115793;28;20285;-72
2021/07/13 02:38:29;;;;;;;;;;;;;;;18.97;77.70;101751.59;5115468;28;19924;-72
2021/07/13 02:40:56;;;;;;;;;;;;;;;19.10;76.97;101751.50;5115522;28;20293;-71
2021/07/13 02:43:23;;;;;;;;;;;;;;;19.02;77.81;101756.53;5115810;28;19923;-72
2021/07/13 02:45:51;;;;;;;;;;;;;;;19.00;78.19;101754.00;5115509;28;19924;-72
2021/07/13 02:48:19;;;;;;;;;;;;;;;18.88;79.29;101749.63;5115321;28;19924;-72
2021/07/13 02:50:46;;;;;;;;;;;;;;;18.93;78.09;101755.41;5115523;28;19928;-72
2021/07/13 02:53:14;;;;;;;;;;;;;;;18.96;78.99;101751.69;5115065;28;20393;-72
2021/07/13 02:55:45;;;;;;;;;;;;;;;18.90;79.84;101750.34;5115242;28;19924;-72
2021/07/13 02:58:12;;;;;;;;;;;;;;;18.90;79.88;101745.91;5115429;28;19947;-72
2021/07/13 03:00:38;;;;;;;;;;;;;;;19.04;78.62;101746.72;5115606;28;19924;-72
2021/07/13 03:03:06;;;;;;;;;;;;;;;19.34;77.74;101741.75;5115062;28;19937;-72
2021/07/13 03:05:34;;;;;;;;;;;;;;;19.54;78.27;101739.34;5115167;28;20012;-72
2021/07/13 03:08:02;;;;;;;;;;;;;;;19.43;78.97;101742.81;5115120;28;19927;-72
2021/07/13 03:10:30;;;;;;;;;;;;;;;19.43;79.50;101740.19;5115029;28;19924;-72
2021/07/13 03:12:58;;;;;;;;;;;;;;;19.40;79.86;101734.31;5114342;28;20396;-72
2021/07/13 03:15:25;;;;;;;;;;;;;;;19.41;80.27;101741.25;5114958;28;19923;-72
2021/07/13 03:17:53;;;;;;;;;;;;;;;19.52;80.20;101741.25;5115004;28;19924;-72
2021/07/13 03:20:20;;;;;;;;;;;;;;;19.70;79.76;101742.50;5114685;28;19931;-72
2021/07/13 03:22:47;;;;;;;;;;;;;;;19.72;79.28;101750.31;5114880;28;19935;-72
2021/07/13 03:25:16;;;;;;;;;;;;;;;19.83;78.08;101746.84;5114907;28;19923;-71
2021/07/13 03:27:43;;;;;;;;;;;;;;;19.84;78.16;101751.16;5114941;28;19924;-71
2021/07/13 03:30:12;;;;;;;;;;;;;;;19.75;78.08;101745.63;5114498;28;19923;-71
2021/07/13 03:32:40;;;;;;;;;;;;;;;19.84;77.43;101752.00;5114679;28;20289;-73
2021/07/13 03:35:08;;;;;;;;;;;;;;;19.78;77.43;101747.19;5114724;28;19924;-72
2021/07/13 03:37:36;;;;;;;;;;;;;;;19.72;78.57;101745.88;5114598;28;19924;-72
2021/07/13 03:40:04;;;;;;;;;;;;;;;19.85;78.02;101748.38;5114479;28;19924;-72
2021/07/13 03:42:31;;;;;;;;;;;;;;;19.84;78.13;101748.53;5114681;28;19938;-72
2021/07/13 03:44:58;;;;;;;;;;;;;;;19.92;78.12;101751.41;5114407;28;20382;-72
2021/07/13 03:47:26;;;;;;;;;;;;;;;19.87;78.63;101750.91;5114106;28;19931;-72
2021/07/13 03:49:53;;;;;;;;;;;;;;;19.88;78.81;101750.78;5114314;28;20389;-72
2021/07/13 03:52:19;;;;;;;;;;;;;;;19.91;79.14;101745.28;5114144;28;19930;-72
2021/07/13 03:54:46;;;;;;;;;;;;;;;19.89;79.38;101754.28;5114243;28;19928;-73
2021/07/13 03:57:13;;;;;;;;;;;;;;;19.94;78.81;101749.50;5113816;28;19924;-72
2021/07/13 03:59:39;;;;;;;;;;;;;;;19.95;79.51;101752.00;5114230;28;20522;-72
2021/07/13 04:02:06;;;;;;;;;;;;;;;19.97;79.93;101760.63;5114109;28;19928;-72
2021/07/13 04:04:34;;;;;;;;;;;;;;;19.91;79.72;101752.34;5114182;28;19924;-72
2021/07/13 04:07:00;;;;;;;;;;;;;;;19.94;79.26;101755.59;5114066;28;19939;-73
2021/07/13 04:09:27;;;;;;;;;;;;;;;19.92;79.73;101754.88;5113797;28;20403;-72
2021/07/13 04:11:54;;;;;;;;;;;;;;;19.90;79.96;101758.59;5113788;28;20305;-72
2021/07/13 04:14:20;;;;;;;;;;;;;;;19.89;79.86;101757.75;5113898;28;19924;-73
2021/07/13 04:16:47;;;;;;;;;;;;;;;19.77;80.26;101756.91;5114152;28;19928;-72
2021/07/13 04:19:13;;;;;;;;;;;;;;;19.76;80.70;101760.53;5113915;28;19924;-71
2021/07/13 04:21:41;;;;;;;;;;;;;;;19.86;80.06;101763.28;5113792;28;19930;-71
2021/07/13 04:24:08;;;;;;;;;;;;;;;19.86;79.65;101763.28;5112668;28;19924;-71
2021/07/13 04:26:35;;;;;;;;;;;;;;;19.86;79.84;101763.28;5113644;28;19924;-71
2021/07/13 04:29:01;;;;;;;;;;;;;;;20.13;78.95;101760.25;5113612;28;19931;-71
2021/07/13 04:31:28;;;;;;;;;;;;;;;20.16;78.54;101759.16;5113320;28;19935;-70
2021/07/13 04:33:54;;;;;;;;;;;;;;;20.08;78.78;101761.59;5113795;28;19924;-70
2021/07/13 04:36:21;;;;;;;;;;;;;;;20.08;79.41;101759.78;5113472;28;19924;-70
2021/07/13 04:38:49;;;;;;;;;;;;;;;20.33;78.70;101765.75;5113365;28;19930;-70
2021/07/13 04:41:16;;;;;;;;;;;;;;;20.36;77.86;101760.22;5113172;28;19923;-70
2021/07/13 04:43:42;;;;;;;;;;;;;;;20.52;78.04;101754.53;5113415;28;20409;-73
2021/07/13 04:46:09;;;;;;;;;;;;;;;20.44;78.64;101758.63;5112895;28;20319;-72
2021/07/13 04:48:36;;;;;;;;;;;;;;;20.49;77.63;101752.97;5113606;28;19924;-72
2021/07/13 04:51:02;;;;;;;;;;;;;;;20.52;77.12;101759.81;5113247;28;19923;-72
2021/07/13 04:53:29;;;;;;;;;;;;;;;20.59;77.04;101759.22;5113231;28;19924;-72
2021/07/13 04:55:57;;;;;;;;;;;;;;;20.78;77.35;101750.63;5113012;28;19924;-72
2021/07/13 04:58:23;;;;;;;;;;;;;;;20.96;75.20;101755.34;5113184;28;19924;-72
2021/07/13 05:00:50;;;;;;;;;;;;;;;20.87;75.15;101760.44;5113060;28;19931;-72
2021/07/13 05:03:16;;;;;;;;;;;;;;;21.09;74.00;101762.16;5112860;28;20374;-72
2021/07/13 05:05:43;;;;;;;;;;;;;;;21.12;75.09;101754.91;5113314;28;19924;-72
2021/07/13 05:08:09;;;;;;;;;;;;;;;21.21;74.34;101759.44;5113135;28;19930;-72
2021/07/13 05:10:36;;;;;;;;;;;;;;;21.34;74.83;101762.72;5112921;28;19924;-72
2021/07/13 05:13:09;;;;;;;;;;;;;;;21.68;73.31;101762.50;5112927;28;20392;-72
2021/07/13 05:15:36;;;;;;;;;;;;;;;21.47;73.63;101763.38;5113197;28;19928;-72
2021/07/13 05:18:02;;;;;;;;;;;;;;;20.99;74.17;101763.88;5112904;28;20414;-72
2021/07/13 05:20:29;;;;;;;;;;;;;;;21.13;74.41;101759.25;5112793;28;19924;-72
2021/07/13 05:22:59;;;;;;;;;;;;;;;21.60;73.87;101757.03;5112819;28;20317;-72
2021/07/13 05:25:26;;;;;;;;;;;;;;;21.75;72.63;101756.53;5112929;28;19927;-72
2021/07/13 05:27:53;;;;;;;;;;;;;;;21.14;74.11;101756.44;5112829;28;19924;-72
2021/07/13 05:30:23;;;;;;;;;;;;;;;21.10;74.24;101757.69;5112600;28;19984;-72
2021/07/13 05:32:50;;;;;;;;;;;;;;;21.21;75.25;101760.25;5112987;28;20326;-73
2021/07/13 05:35:17;;;;;;;;;;;;;;;21.21;72.62;101757.63;5113718;28;19923;-72
2021/07/13 05:37:44;;;;;;;;;;;;;;;21.59;72.31;101758.84;5116841;28;19924;-72
2021/07/13 05:40:11;;;;;;;;;;;;;;;21.86;70.85;101762.72;5116563;28;20297;-72
2021/07/13 05:42:38;;;;;;;;;;;;;;;21.78;70.45;101758.09;5117170;28;19938;-71
2021/07/13 05:45:05;;;;;;;;;;;;;;;21.70;69.86;101765.84;5116949;28;19931;-71
2021/07/13 05:47:33;;;;;;;;;;;;;;;21.98;70.45;101771.41;5117061;28;19930;-71
2021/07/13 05:50:00;;;;;;;;;;;;;;;22.02;70.46;101767.53;5116588;28;20409;-71
2021/07/13 05:52:26;;;;;;;;;;;;;;;21.67;69.93;101760.84;5116705;28;19924;-71
2021/07/13 05:54:53;;;;;;;;;;;;;;;21.36;70.08;101767.88;5116581;28;19931;-71
2021/07/13 05:57:20;;;;;;;;;;;;;;;21.28;70.89;101764.06;5116309;28;20287;-71
2021/07/13 05:59:46;;;;;;;;;;;;;;;21.34;69.60;101767.16;5116842;28;19931;-71
2021/07/13 06:02:13;;;;;;;;;;;;;;;21.34;70.64;101775.13;5116141;28;19924;-71
2021/07/13 06:04:41;;;;;;;;;;;;;;;21.41;70.86;101784.25;5116383;28;19931;-71
2021/07/13 06:07:07;;;;;;;;;;;;;;;21.47;71.77;101783.72;5116068;28;20324;-71
2021/07/13 06:09:34;;;;;;;;;;;;;;;21.45;72.93;101781.22;5116668;28;19924;-72
2021/07/13 06:12:01;;;;;;;;;;;;;;;21.79;72.82;101782.78;5116258;28;19931;-72
2021/07/13 06:14:27;;;;;;;;;;;;;;;21.81;72.29;101783.47;5115929;28;20381;-72
2021/07/13 06:16:54;;;;;;;;;;;;;;;22.05;72.25;101786.66;5116420;28;19931;-72
2021/07/13 06:19:21;;;;;;;;;;;;;;;21.97;70.70;101783.84;5115936;28;19924;-73
2021/07/13 06:21:49;;;;;;;;;;;;;;;22.41;69.53;101783.56;5116123;28;19924;-72
2021/07/13 06:24:15;;;;;;;;;;;;;;;22.20;67.97;101783.66;5115649;28;19924;-72
2021/07/13 06:26:42;;;;;;;;;;;;;;;22.17;69.29;101787.38;5116010;28;19924;-71
2021/07/13 06:29:08;;;;;;;;;;;;;;;22.13;69.11;101786.81;5115693;28;20378;-71
2021/07/13 06:31:35;;;;;;;;;;;;;;;21.93;69.57;101785.88;5116127;28;19931;-71
2021/07/13 06:34:01;;;;;;;;;;;;;;;21.91;66.78;101793.16;5115670;28;20361;-71
2021/07/13 06:36:28;;;;;;;;;;;;;;;22.00;67.73;101793.31;5115837;28;19976;-71
2021/07/13 06:38:56;;;;;;;;;;;;;;;22.12;68.27;101798.38;5116028;28;19939;-71
2021/07/13 06:41:23;;;;;;;;;;;;;;;22.12;67.59;101793.09;5115688;28;19931;-72
2021/07/13 06:43:49;;;;;;;;;;;;;;;22.30;68.93;101793.31;5115981;28;19963;-71
2021/07/13 06:46:16;;;;;;;;;;;;;;;22.39;69.36;101797.78;5114954;28;19931;-73
2021/07/13 06:48:42;;;;;;;;;;;;;;;22.43;69.06;101798.38;5114872;28;19930;-72
2021/07/13 06:51:09;;;;;;;;;;;;;;;22.19;67.69;101798.69;5115551;28;19924;-72
2021/07/13 06:53:36;;;;;;;;;;;;;;;21.78;68.57;101805.75;5115353;28;19923;-71
2021/07/13 06:56:04;;;;;;;;;;;;;;;21.95;68.86;101801.66;5115225;28;20397;-71
2021/07/13 06:58:30;;;;;;;;;;;;;;;22.69;67.13;101801.34;5115394;28;19931;-71
2021/07/13 07:00:57;;;;;;;;;;;;;;;23.44;64.60;101796.28;5115138;28;20301;-71
2021/07/13 07:03:23;;;;;;;;;;;;;;;23.76;63.60;101797.75;5115332;28;19931;-71
2021/07/13 07:05:50;;;;;;;;;;;;;;;23.46;64.32;101802.28;5115238;28;19924;-72
2021/07/13 07:08:17;;;;;;;;;;;;;;;23.81;62.62;101798.16;5114812;28;20374;-72
2021/07/13 07:10:43;;;;;;;;;;;;;;;24.10;60.57;101793.56;5115432;28;19923;-73
2021/07/13 07:13:11;;;;;;;;;;;;;;;24.53;59.39;101800.06;5114863;28;19923;-71
2021/07/13 07:15:38;;;;;;;;;;;;;;;24.05;61.01;101797.66;5114906;28;19939;-71
2021/07/13 07:18:04;;;;;;;;;;;;;;;24.58;59.18;101796.09;5115282;28;19923;-70
2021/07/13 07:20:31;;;;;;;;;;;;;;;24.41;59.20;101801.22;5114808;28;19931;-70
2021/07/13 07:22:58;;;;;;;;;;;;;;;25.10;58.36;101794.41;5114890;28;19924;-70
2021/07/13 07:25:27;;;;;;;;;;;;;;;25.47;57.27;101789.88;5114919;28;19951;-70
2021/07/13 07:27:55;;;;;;;;;;;;;;;26.11;55.24;101801.03;5114675;28;19930;-70
2021/07/13 07:30:24;;;;;;;;;;;;;;;25.41;56.32;101796.66;5114455;28;20308;-70
2021/07/13 07:32:51;;;;;;;;;;;;;;;25.06;56.97;101798.34;5114966;28;19924;-70
2021/07/13 07:35:17;;;;;;;;;;;;;;;24.96;56.23;101795.78;5114244;28;19931;-70
2021/07/13 07:37:44;;;;;;;;;;;;;;;24.95;56.34;101788.78;5114835;28;19931;-70
2021/07/13 07:40:12;;;;;;;;;;;;;;;24.82;56.22;101785.69;5114656;28;19930;-73
2021/07/13 07:42:38;;;;;;;;;;;;;;;26.18;52.16;101784.22;5114830;28;20044;-72
2021/07/13 07:45:05;;;;;;;;;;;;;;;25.21;54.23;101801.34;5114222;28;19957;-71
2021/07/13 07:47:33;;;;;;;;;;;;;;;25.71;53.78;101792.66;5114371;28;19931;-71
2021/07/13 07:50:00;;;;;;;;;;;;;;;26.00;53.48;101797.66;5114205;28;19924;-71
2021/07/13 07:52:27;;;;;;;;;;;;;;;27.22;50.49;101795.41;5114469;28;19924;-71
2021/07/13 07:54:53;;;;;;;;;;;;;;;27.36;50.23;101792.88;5114337;28;19924;-71
2021/07/13 07:57:20;;;;;;;;;;;;;;;28.84;46.86;101795.72;5113981;28;20366;-72
2021/07/13 07:59:46;;;;;;;;;;;;;;;29.76;45.59;101783.97;5114319;28;19930;-71
2021/07/13 08:02:14;;;;;;;;;;;;;;;29.88;43.93;101787.84;5113730;28;19931;-71
2021/07/13 08:04:42;;;;;;;;;;;;;;;29.39;45.64;101788.38;5114063;28;19930;-71
2021/07/13 08:07:10;;;;;;;;;;;;;;;29.09;45.30;101791.00;5113696;28;20216;-71
2021/07/13 08:09:37;;;;;;;;;;;;;;;28.09;45.96;101785.63;5113889;28;19931;-72
2021/07/13 08:12:04;;;;;;;;;;;;;;;29.22;45.24;101781.53;5114171;28;19924;-71
2021/07/13 08:14:30;;;;;;;;;;;;;;;29.86;45.06;101776.47;5114004;28;19923;-71
2021/07/13 08:16:57;;;;;;;;;;;;;;;29.90;42.32;101783.13;5113960;28;20297;-71
2021/07/13 08:19:24;;;;;;;;;;;;;;;29.50;40.93;101777.19;5113696;28;20290;-73
2021/07/13 08:21:52;;;;;;;;;;;;;;;28.75;40.64;101774.56;5113991;28;19939;-71
2021/07/13 08:24:18;;;;;;;;;;;;;;;27.66;43.53;101776.25;5113415;28;20397;-71
2021/07/13 08:26:46;;;;;;;;;;;;;;;28.34;43.19;101772.97;5113688;28;19951;-72
2021/07/13 08:29:13;;;;;;;;;;;;;;;29.26;42.82;101770.25;5114004;28;19924;-72
2021/07/13 08:31:39;;;;;;;;;;;;;;;29.14;42.06;101769.03;5113705;28;19927;-71
2021/07/13 08:34:06;;;;;;;;;;;;;;;30.06;40.47;101763.31;5113193;28;19924;-72
2021/07/13 08:36:33;;;;;;;;;;;;;;;30.03;39.90;101763.69;5114110;28;19923;-72
2021/07/13 08:39:01;;;;;;;;;;;;;;;30.73;39.03;101759.47;5113367;28;19928;-72
2021/07/13 08:41:30;;;;;;;;;;;;;;;30.63;38.60;101764.31;5113078;28;20396;-72
2021/07/13 08:43:57;;;;;;;;;;;;;;;31.44;36.07;101759.41;5113327;28;19924;-72
2021/07/13 08:46:23;;;;;;;;;;;;;;;31.21;36.42;101761.47;5113076;28;19930;-71
2021/07/13 08:48:53;;;;;;;;;;;;;;;30.19;38.29;101770.66;5113056;28;19923;-71
2021/07/13 08:51:20;;;;;;;;;;;;;;;30.47;36.49;101765.41;5113075;28;20400;-71
2021/07/13 08:53:47;;;;;;;;;;;;;;;29.83;38.31;101768.81;5113629;28;19931;-71
2021/07/13 08:56:15;;;;;;;;;;;;;;;30.41;37.62;101771.53;5112786;28;19924;-71
2021/07/13 08:58:42;;;;;;;;;;;;;;;30.72;35.62;101773.06;5113280;28;19924;-71
2021/07/13 09:01:08;;;;;;;;;;;;;;;31.18;36.63;101761.88;5112792;28;19924;-71
2021/07/13 09:03:35;;;;;;;;;;;;;;;30.79;35.06;101757.84;5113062;28;20373;-72
2021/07/13 09:06:02;;;;;;;;;;;;;;;31.38;34.98;101760.19;5113404;28;19924;-72
2021/07/13 09:08:30;;;;;;;;;;;;;;;32.07;34.01;101769.22;5112765;28;19924;-72
2021/07/13 09:11:14;;;;;;;;;;;;;;;33.26;33.03;101765.78;5112617;28;19923;-71
2021/07/13 09:13:43;;;;;;;;;;;;;;;32.53;32.33;101769.34;5113051;28;19924;-71
2021/07/13 09:16:11;;;;;;;;;;;;;;;31.40;34.85;101766.19;5112925;28;19927;-71
2021/07/13 09:18:39;;;;;;;;;;;;;;;32.33;33.59;101771.13;5112923;28;19927;-71
2021/07/13 09:21:22;;;;;;;;;;;;;;;33.50;31.24;101769.69;5112676;28;19924;-71
2021/07/13 09:24:08;;;;;;;;;;;;;;;33.86;30.83;101770.19;5112658;28;20362;-72
2021/07/13 09:26:36;;;;;;;;;;;;;;;33.71;32.23;101767.78;5112898;28;19931;-73
2021/07/13 09:29:04;;;;;;;;;;;;;;;32.37;32.58;101769.72;5112811;28;19924;-72
2021/07/13 09:31:31;;;;;;;;;;;;;;;32.83;34.27;101770.78;5112649;28;19931;-72
2021/07/13 09:33:57;;;;;;;;;;;;;;;33.96;32.53;101771.41;5112631;28;19931;-72
2021/07/13 09:36:24;;;;;;;;;;;;;;;31.74;34.79;101769.06;5112706;28;19949;-72
2021/07/13 09:38:53;;;;;;;;;;;;;;;31.41;34.44;101762.47;5112637;28;19931;-72
2021/07/13 09:41:21;;;;;;;;;;;;;;;33.36;33.36;101759.97;5112783;28;20116;-72
2021/07/13 09:43:49;;;;;;;;;;;;;;;32.94;32.65;101748.63;5112741;28;19930;-72
2021/07/13 09:46:30;;;;;;;;;;;;;;;31.07;34.19;101755.19;5112307;28;20400;-72
2021/07/13 09:49:07;;;;;;;;;;;;;;;31.66;35.77;101753.91;5112982;28;19924;-72
2021/07/13 09:51:34;;;;;;;;;;;;;;;32.25;35.18;101757.88;5112609;28;20278;-72
2021/07/13 09:54:01;;;;;;;;;;;;;;;32.17;32.47;101753.50;5112862;28;19931;-72
2021/07/13 09:56:38;;;;;;;;;;;;;;;32.92;32.28;101759.59;5112185;28;19924;-72
2021/07/13 09:59:05;;;;;;;;;;;;;;;32.52;32.40;101759.59;5112175;28;19924;-72
2021/07/13 10:01:33;;;;;;;;;;;;;;;32.50;32.61;101758.97;5112499;28;19924;-72
2021/07/13 10:04:00;;;;;;;;;;;;;;;34.26;28.19;101757.34;5112544;28;19930;-72
2021/07/13 10:06:27;;;;;;;;;;;;;;;32.68;28.96;101757.56;5112567;28;19923;-71
2021/07/13 10:08:53;;;;;;;;;;;;;;;33.61;27.70;101742.06;5112349;28;19924;-71
2021/07/13 10:11:20;;;;;;;;;;;;;;;33.42;28.64;101752.91;5112341;28;19935;-72
2021/07/13 10:13:47;;;;;;;;;;;;;;;34.42;28.63;101754.09;5112730;28;19924;-71
2021/07/13 10:16:13;;;;;;;;;;;;;;;31.57;32.18;101742.47;5112391;28;19924;-71
2021/07/13 10:18:43;;;;;;;;;;;;;;;33.95;28.52;101747.31;5112293;28;19928;-72
2021/07/13 10:21:10;;;;;;;;;;;;;;;34.67;27.38;101746.03;5113050;28;20038;-71
2021/07/13 10:23:36;;;;;;;;;;;;;;;37.09;24.55;101745.41;5115863;28;20404;-71
2021/07/13 10:26:06;;;;;;;;;;;;;;;35.14;25.97;101742.09;5116340;28;19924;-71
2021/07/13 10:28:33;;;;;;;;;;;;;;;34.62;28.11;101740.47;5116282;28;19923;-71
2021/07/13 10:31:00;;;;;;;;;;;;;;;34.09;27.97;101732.72;5115871;28;19996;-72
2021/07/13 10:33:31;;;;;;;;;;;;;;;35.23;27.55;101741.59;5115584;28;20397;-72
2021/07/13 10:36:19;;;;;;;;;;;;;;;36.45;25.05;101734.38;5116023;28;19928;-71
2021/07/13 10:38:45;;;;;;;;;;;;;;;34.76;26.16;101737.66;5115680;28;19924;-72
2021/07/13 10:41:12;;;;;;;;;;;;;;;35.62;25.65;101731.38;5115762;28;19931;-72
2021/07/13 10:43:45;;;;;;;;;;;;;;;35.22;25.31;101744.50;5115974;28;19972;-72
2021/07/13 10:46:12;;;;;;;;;;;;;;;35.92;24.04;101731.38;5115258;28;19931;-72
2021/07/13 10:48:39;;;;;;;;;;;;;;;36.62;24.11;101736.19;5115611;28;19924;-71
2021/07/13 10:51:08;;;;;;;;;;;;;;;36.42;24.61;101739.19;5115304;28;20370;-71
2021/07/13 10:53:38;;;;;;;;;;;;;;;36.09;24.24;101734.28;5115369;28;19924;-71
2021/07/13 10:56:09;;;;;;;;;;;;;;;35.55;24.74;101736.00;5116738;27;19924;-71
2021/07/13 10:58:46;;;;;;;;;;;;;;;34.89;25.79;101732.97;5113635;28;19924;-72
2021/07/13 11:01:14;;;;;;;;;;;;;;;34.63;26.13;101728.63;5115008;28;20369;-72
2021/07/13 11:03:51;;;;;;;;;;;;;;;34.55;27.16;101728.84;5115914;28;19928;-72
2021/07/13 11:06:19;;;;;;;;;;;;;;;33.27;28.94;101724.31;5114877;28;20389;-72
2021/07/13 11:08:52;;;;;;;;;;;;;;;34.68;27.98;101725.25;5115187;28;19931;-72
2021/07/13 11:11:36;;;;;;;;;;;;;;;35.06;26.39;101727.78;5115294;28;19924;-72
2021/07/13 11:14:03;;;;;;;;;;;;;;;36.92;23.89;101728.97;5115254;28;19924;-72
2021/07/13 11:16:30;;;;;;;;;;;;;;;35.30;25.57;101726.13;5115372;28;19923;-72
2021/07/13 11:18:58;;;;;;;;;;;;;;;35.09;27.12;101726.53;5116436;28;19931;-72
2021/07/13 11:21:27;;;;;;;;;;;;;;;35.72;26.80;101731.66;5114741;28;20401;-72
2021/07/13 11:23:54;;;;;;;;;;;;;;;35.82;25.38;101724.88;5114820;28;19931;-72
2021/07/13 11:26:22;;;;;;;;;;;;;;;37.95;22.82;101723.81;5114663;28;19935;-72
2021/07/13 11:28:50;;;;;;;;;;;;;;;36.89;25.31;101733.00;5114830;28;19931;-71
2021/07/13 11:31:19;;;;;;;;;;;;;;;36.46;23.83;101725.19;5114713;28;19924;-71
2021/07/13 11:33:52;;;;;;;;;;;;;;;36.33;24.26;101720.81;5114219;28;20318;-72
2021/07/13 11:36:26;;;;;;;;;;;;;;;37.55;25.28;101719.25;5114752;28;19924;-71
2021/07/13 11:38:53;;;;;;;;;;;;;;;36.03;25.41;101715.41;5114838;28;19970;-71
2021/07/13 11:41:20;;;;;;;;;;;;;;;37.98;22.33;101715.19;5114368;28;19923;-72
2021/07/13 11:43:51;;;;;;;;;;;;;;;36.73;24.98;101720.16;5114844;28;19957;-71
2021/07/13 11:46:18;;;;;;;;;;;;;;;37.39;22.44;101713.47;5114140;28;20360;-71
2021/07/13 11:48:54;;;;;;;;;;;;;;;35.28;24.76;101716.56;5114459;28;19924;-72
2021/07/13 11:51:26;;;;;;;;;;;;;;;34.67;28.12;101705.50;5114257;28;20377;-71
2021/07/13 11:53:59;;;;;;;;;;;;;;;34.22;26.17;101705.66;5114302;28;20286;-71
2021/07/13 11:56:26;;;;;;;;;;;;;;;35.17;22.80;101701.94;5114133;28;19924;-71
2021/07/13 11:58:53;;;;;;;;;;;;;;;34.34;26.14;101705.75;5114229;28;20339;-71
2021/07/13 12:01:21;;;;;;;;;;;;;;;34.56;26.47;101705.38;5114138;28;19924;-72
2021/07/13 12:03:48;;;;;;;;;;;;;;;35.29;26.49;101704.69;5114152;28;20008;-71
2021/07/13 12:06:15;;;;;;;;;;;;;;;34.25;28.54;101707.09;5113811;28;19924;-72
2021/07/13 12:08:43;;;;;;;;;;;;;;;35.52;27.10;101704.81;5114060;28;20347;-72
2021/07/13 12:11:11;;;;;;;;;;;;;;;35.22;27.18;101696.66;5113620;28;19931;-72
2021/07/13 12:13:38;;;;;;;;;;;;;;;35.84;27.21;101701.09;5114317;28;19923;-72
2021/07/13 12:16:18;;;;;;;;;;;;;;;37.66;23.39;101697.50;5113845;28;19924;-72
2021/07/13 12:18:45;;;;;;;;;;;;;;;37.17;22.76;101705.16;5114017;28;19931;-72
2021/07/13 12:21:13;;;;;;;;;;;;;;;36.49;24.44;101703.84;5113570;28;19930;-72
2021/07/13 12:23:40;;;;;;;;;;;;;;;37.48;23.63;101693.06;5113949;28;19924;-72
2021/07/13 12:26:27;;;;;;;;;;;;;;;38.22;23.85;101702.28;5113426;28;20374;-72
2021/07/13 12:29:05;;;;;;;;;;;;;;;36.39;22.90;101695.47;5106840;28;19924;-72
2021/07/13 12:31:32;;;;;;;;;;;;;;;36.45;24.86;101691.81;5113760;28;19924;-71
2021/07/13 12:33:59;;;;;;;;;;;;;;;36.99;22.58;101686.28;5113749;28;20377;-72
2021/07/13 12:36:27;;;;;;;;;;;;;;;36.53;23.04;101680.66;5113269;28;20438;-71
2021/07/13 12:38:54;;;;;;;;;;;;;;;37.02;24.12;101683.94;5113692;28;19923;-71